createdAt,value
2019-01-27T00:00:42.176Z,91.16
2019-01-27T00:03:15.633Z,90.59
2019-01-27T00:05:47.468Z,90.70
2019-01-27T00:08:19.273Z,90.65
2019-01-27T00:10:51.073Z,90.86
2019-01-27T00:13:22.869Z,90.74
2019-01-27T00:15:54.750Z,90.90
2019-01-27T00:18:26.865Z,91.48
2019-01-27T00:20:58.930Z,91.37
2019-01-27T00:23:30.794Z,90.89
2019-01-27T00:26:02.668Z,91.39
2019-01-27T00:28:34.530Z,91.09
2019-01-27T00:31:06.483Z,91.16
2019-01-27T00:33:38.341Z,91.06
2019-01-27T00:36:10.217Z,91.36
2019-01-27T00:38:42.016Z,91.39
2019-01-27T00:41:13.806Z,90.57
2019-01-27T00:43:45.674Z,90.36
2019-01-27T00:46:17.842Z,90.16
2019-01-27T00:48:49.561Z,89.83
2019-01-27T00:51:21.363Z,89.81
2019-01-27T00:53:53.239Z,89.46
2019-01-27T00:56:25.040Z,89.87
2019-01-27T00:58:56.755Z,89.68
2019-01-27T01:01:28.556Z,89.48
2019-01-27T01:04:00.411Z,89.34
2019-01-27T01:06:32.539Z,89.19
2019-01-27T01:09:06.745Z,89.39
2019-01-27T01:11:38.718Z,89.43
2019-01-27T01:14:10.510Z,89.20
2019-01-27T01:16:42.375Z,89.19
2019-01-27T01:19:14.335Z,89.32
2019-01-27T01:21:46.404Z,89.30
2019-01-27T01:24:18.188Z,89.15
2019-01-27T01:26:50.011Z,89.27
2019-01-27T01:29:21.798Z,89.44
2019-01-27T01:31:53.600Z,88.95
2019-01-27T01:34:25.481Z,88.81
2019-01-27T01:36:57.345Z,88.99
2019-01-27T01:39:29.386Z,89.11
2019-01-27T01:42:01.194Z,89.22
2019-01-27T01:44:32.933Z,88.79
2019-01-27T01:47:05.062Z,88.71
2019-01-27T01:49:36.781Z,88.78
2019-01-27T01:52:09.893Z,88.48
2019-01-27T01:54:41.939Z,88.37
2019-01-27T01:57:13.736Z,88.23
2019-01-27T01:59:45.454Z,87.97
2019-01-27T02:02:17.356Z,88.10
2019-01-27T02:04:49.238Z,87.88
2019-01-27T02:07:21.106Z,88.22
2019-01-27T02:09:53.145Z,88.00
2019-01-27T02:12:25.016Z,87.22
2019-01-27T02:14:56.806Z,87.47
2019-01-27T02:17:28.605Z,87.26
2019-01-27T02:20:00.392Z,86.95
2019-01-27T02:22:32.189Z,86.73
2019-01-27T02:25:04.356Z,86.60
2019-01-27T02:27:36.159Z,86.16
2019-01-27T02:30:09.251Z,86.29
2019-01-27T02:32:41.049Z,86.48
2019-01-27T02:35:12.921Z,86.72
2019-01-27T02:37:44.721Z,86.95
2019-01-27T02:40:16.590Z,86.62
2019-01-27T02:42:48.417Z,87.01
2019-01-27T02:45:20.421Z,87.16
2019-01-27T02:47:52.302Z,86.93
2019-01-27T02:50:24.362Z,87.37
2019-01-27T02:52:56.176Z,86.99
2019-01-27T02:55:27.970Z,87.03
2019-01-27T02:57:59.796Z,86.94
2019-01-27T03:00:32.636Z,86.94
2019-01-27T03:03:04.614Z,87.22
2019-01-27T03:05:58.127Z,86.75
2019-01-27T03:08:41.089Z,86.61
2019-01-27T03:11:12.953Z,86.57
2019-01-27T03:13:44.832Z,86.57
2019-01-27T03:16:16.695Z,86.88
2019-01-27T03:18:48.679Z,86.39
2019-01-27T03:21:20.393Z,86.76
2019-01-27T03:23:52.192Z,86.68
2019-01-27T03:26:24.061Z,86.45
2019-01-27T03:28:55.864Z,86.74
2019-01-27T03:31:27.748Z,86.37
2019-01-27T03:33:59.613Z,85.92
2019-01-27T03:36:41.505Z,86.00
2019-01-27T03:39:13.848Z,86.12
2019-01-27T03:41:45.548Z,85.82
2019-01-27T03:44:17.602Z,86.22
2019-01-27T03:46:49.487Z,86.10
2019-01-27T03:49:21.541Z,86.08
2019-01-27T03:51:53.305Z,85.94
2019-01-27T03:54:25.047Z,86.15
2019-01-27T03:56:57.103Z,86.24
2019-01-27T03:59:28.892Z,86.08
2019-01-27T04:02:00.686Z,86.16
2019-01-27T04:04:32.409Z,86.17
2019-01-27T04:07:04.124Z,86.10
2019-01-27T04:09:35.847Z,86.49
2019-01-27T04:12:07.716Z,86.35
2019-01-27T04:14:39.521Z,86.23
2019-01-27T04:17:11.211Z,86.35
2019-01-27T04:19:43.043Z,86.23
2019-01-27T04:22:14.816Z,86.49
2019-01-27T04:24:46.799Z,86.36
2019-01-27T04:27:18.495Z,86.54
2019-01-27T04:29:50.220Z,86.54
2019-01-27T04:32:22.093Z,86.82
2019-01-27T04:34:53.887Z,86.86
2019-01-27T04:37:25.582Z,86.41
2019-01-27T04:39:57.451Z,86.36
2019-01-27T04:42:29.168Z,85.86
2019-01-27T04:45:01.217Z,86.59
2019-01-27T04:47:32.928Z,87.07
2019-01-27T04:50:06.174Z,86.48
2019-01-27T04:52:37.898Z,86.31
2019-01-27T04:55:12.526Z,86.57
2019-01-27T04:57:44.707Z,87.08
2019-01-27T05:00:19.858Z,86.83
2019-01-27T05:03:19.663Z,87.19
2019-01-27T05:05:51.529Z,87.38
2019-01-27T05:08:23.310Z,87.48
2019-01-27T05:10:55.110Z,87.07
2019-01-27T05:13:26.883Z,86.95
2019-01-27T05:15:58.682Z,86.96
2019-01-27T05:18:30.390Z,86.72
2019-01-27T05:21:02.190Z,87.15
2019-01-27T05:23:33.972Z,87.17
2019-01-27T05:26:05.874Z,86.89
2019-01-27T05:28:37.588Z,86.71
2019-01-27T05:31:09.529Z,87.26
2019-01-27T05:33:41.234Z,87.63
2019-01-27T05:36:13.921Z,87.85
2019-01-27T05:38:45.877Z,87.82
2019-01-27T05:41:17.594Z,87.48
2019-01-27T05:43:49.387Z,87.20
2019-01-27T05:46:21.195Z,86.87
2019-01-27T05:48:52.903Z,86.88
2019-01-27T05:51:24.633Z,86.74
2019-01-27T05:53:56.346Z,87.00
2019-01-27T05:56:28.153Z,86.84
2019-01-27T05:58:59.942Z,86.93
2019-01-27T06:01:31.656Z,87.13
2019-01-27T06:04:03.439Z,86.86
2019-01-27T06:06:35.171Z,87.10
2019-01-27T06:09:10.028Z,87.27
2019-01-27T06:11:41.762Z,87.55
2019-01-27T06:14:13.727Z,88.02
2019-01-27T06:16:45.459Z,87.94
2019-01-27T06:19:17.250Z,88.52
2019-01-27T06:21:49.054Z,88.50
2019-01-27T06:24:20.771Z,88.86
2019-01-27T06:26:52.500Z,88.82
2019-01-27T06:29:24.277Z,88.92
2019-01-27T06:31:56.961Z,89.07
2019-01-27T06:34:28.678Z,89.66
2019-01-27T06:37:00.459Z,89.05
2019-01-27T06:39:32.171Z,89.08
2019-01-27T06:42:04.037Z,88.87
2019-01-27T06:44:35.746Z,89.08
2019-01-27T06:47:19.531Z,89.27
2019-01-27T06:49:46.565Z,89.42
2019-01-27T06:52:18.278Z,89.75
2019-01-27T06:54:50.073Z,90.15
2019-01-27T06:57:21.857Z,90.23
2019-01-27T07:00:06.764Z,90.01
2019-01-27T07:02:43.507Z,89.79
2019-01-27T07:05:24.296Z,90.16
2019-01-27T07:08:04.834Z,89.89
2019-01-27T07:10:55.234Z,90.18
2019-01-27T07:13:45.875Z,90.40
2019-01-27T07:16:33.942Z,90.25
2019-01-27T07:19:39.969Z,90.26
2019-01-27T07:22:21.990Z,90.21
2019-01-27T07:25:04.174Z,90.06
2019-01-27T07:27:47.500Z,90.35
2019-01-27T07:30:41.755Z,90.46
2019-01-27T07:33:32.459Z,90.76
2019-01-27T07:36:29.198Z,90.90
2019-01-27T07:39:11.946Z,91.31
2019-01-27T07:42:09.333Z,91.60
2019-01-27T07:44:46.068Z,91.49
2019-01-27T07:47:54.982Z,91.31
2019-01-27T07:50:52.201Z,91.37
2019-01-27T07:53:45.737Z,91.08
2019-01-27T07:56:45.601Z,91.09
2019-01-27T07:59:33.597Z,90.64
2019-01-27T08:02:16.821Z,90.47
2019-01-27T08:05:06.413Z,90.67
2019-01-27T08:07:56.099Z,91.13
2019-01-27T08:10:39.932Z,91.15
2019-01-27T08:13:27.428Z,91.12
2019-01-27T08:16:22.300Z,90.96
2019-01-27T08:19:11.356Z,90.92
2019-01-27T08:22:07.012Z,90.95
2019-01-27T08:25:04.145Z,91.48
2019-01-27T08:27:43.257Z,90.93
2019-01-27T08:30:31.387Z,90.81
2019-01-27T08:33:20.946Z,91.37
2019-01-27T08:36:04.659Z,91.19
2019-01-27T08:38:49.310Z,91.16
2019-01-27T08:41:48.901Z,91.26
2019-01-27T08:44:39.534Z,91.12
2019-01-27T08:47:11.518Z,91.04
2019-01-27T08:49:43.255Z,90.91
2019-01-27T08:52:15.048Z,90.84
2019-01-27T08:54:46.858Z,90.70
2019-01-27T08:57:18.583Z,90.79
2019-01-27T08:59:50.315Z,91.14
2019-01-27T09:02:39.445Z,90.71
2019-01-27T09:05:36.494Z,90.65
2019-01-27T09:08:27.356Z,90.01
2019-01-27T09:11:17.980Z,90.38
2019-01-27T09:14:05.957Z,90.54
2019-01-27T09:17:11.846Z,90.28
2019-01-27T09:20:05.652Z,90.46
2019-01-27T09:22:54.998Z,90.55
2019-01-27T09:25:44.026Z,90.20
2019-01-27T09:28:23.267Z,89.98
2019-01-27T09:31:12.088Z,90.08
2019-01-27T09:34:13.349Z,90.26
2019-01-27T09:36:55.221Z,90.42
2019-01-27T09:40:04.114Z,90.51
2019-01-27T09:42:55.180Z,90.49
2019-01-27T09:45:38.789Z,89.47
2019-01-27T09:48:28.176Z,89.84
2019-01-27T09:51:14.615Z,89.24
2019-01-27T09:53:53.739Z,89.36
2019-01-27T09:56:36.706Z,89.00
2019-01-27T09:59:43.398Z,88.66
2019-01-27T10:02:36.204Z,87.51
2019-01-27T10:05:28.727Z,87.78
2019-01-27T10:08:14.536Z,87.49
2019-01-27T10:11:11.094Z,86.57
2019-01-27T10:14:04.750Z,86.70
2019-01-27T10:16:47.967Z,86.18
2019-01-27T10:19:47.778Z,86.28
2019-01-27T10:22:47.707Z,86.14
2019-01-27T10:25:37.971Z,85.64
2019-01-27T10:28:29.045Z,85.76
2019-01-27T10:31:19.757Z,85.41
2019-01-27T10:34:08.777Z,85.70
2019-01-27T10:36:53.697Z,84.55
2019-01-27T10:39:41.723Z,84.76
2019-01-27T10:42:20.155Z,85.01
2019-01-27T10:45:20.553Z,85.22
2019-01-27T10:48:01.528Z,84.91
2019-01-27T10:50:52.239Z,84.92
2019-01-27T10:53:45.668Z,84.25
2019-01-27T10:56:34.449Z,83.76
2019-01-27T10:59:22.270Z,82.56
2019-01-27T11:02:16.980Z,82.63
2019-01-27T11:05:08.029Z,81.96
2019-01-27T11:07:50.131Z,81.77
2019-01-27T11:10:42.125Z,81.75
2019-01-27T11:13:32.769Z,80.48
2019-01-27T11:16:15.160Z,80.88
2019-01-27T11:19:04.396Z,79.79
2019-01-27T11:21:59.072Z,80.07
2019-01-27T11:24:46.393Z,80.25
2019-01-27T11:27:38.559Z,80.35
2019-01-27T11:30:32.842Z,80.00
2019-01-27T11:33:22.336Z,80.59
2019-01-27T11:36:00.558Z,82.74
2019-01-27T11:38:57.356Z,83.13
2019-01-27T11:41:58.496Z,84.43
2019-01-27T11:44:48.509Z,83.43
2019-01-27T11:47:54.567Z,83.36
2019-01-27T11:50:30.771Z,83.06
2019-01-27T11:53:06.249Z,83.04
2019-01-27T11:55:38.119Z,82.71
2019-01-27T11:58:09.992Z,82.46
2019-01-27T12:00:44.844Z,81.72
2019-01-27T12:03:16.583Z,81.55
2019-01-27T12:05:48.361Z,80.22
2019-01-27T12:08:20.097Z,80.37
2019-01-27T12:10:51.984Z,80.11
2019-01-27T12:13:23.790Z,80.39
2019-01-27T12:15:55.773Z,80.62
2019-01-27T12:18:27.651Z,81.63
2019-01-27T12:20:59.369Z,81.68
2019-01-27T12:23:31.435Z,81.96
2019-01-27T12:26:03.225Z,81.38
2019-01-27T12:28:35.031Z,81.63
2019-01-27T12:31:06.907Z,81.77
2019-01-27T12:33:39.676Z,82.43
2019-01-27T12:36:11.530Z,82.46
2019-01-27T12:38:43.651Z,80.55
2019-01-27T12:41:15.365Z,79.71
2019-01-27T12:43:47.096Z,77.82
2019-01-27T12:46:19.140Z,77.79
2019-01-27T12:48:50.944Z,77.46
2019-01-27T12:51:22.734Z,77.53
2019-01-27T12:53:54.610Z,77.33
2019-01-27T12:56:26.406Z,76.80
2019-01-27T12:58:58.141Z,77.21
2019-01-27T13:01:30.006Z,76.14
2019-01-27T13:04:01.747Z,76.14
2019-01-27T13:06:33.490Z,74.54
2019-01-27T13:09:08.561Z,72.80
2019-01-27T13:11:40.290Z,73.51
2019-01-27T13:14:12.092Z,73.88
2019-01-27T13:16:43.804Z,74.15
2019-01-27T13:19:15.534Z,74.01
2019-01-27T13:21:47.543Z,74.03
2019-01-27T13:24:22.182Z,74.16
2019-01-27T13:26:54.612Z,74.23
2019-01-27T13:29:26.792Z,74.47
2019-01-27T13:31:58.702Z,74.87
2019-01-27T13:34:30.907Z,75.57
2019-01-27T13:37:04.341Z,76.35
2019-01-27T13:39:36.065Z,76.50
2019-01-27T13:42:07.855Z,76.70
2019-01-27T13:44:39.580Z,77.15
2019-01-27T13:47:11.371Z,77.33
2019-01-27T13:49:43.089Z,77.74
2019-01-27T13:52:14.807Z,78.05
2019-01-27T13:54:46.550Z,78.10
2019-01-27T13:57:18.429Z,77.53
2019-01-27T13:59:51.527Z,77.58
2019-01-27T14:02:23.442Z,77.97
2019-01-27T14:04:55.411Z,78.06
2019-01-27T14:07:27.431Z,77.92
2019-01-27T14:09:59.244Z,77.58
2019-01-27T14:12:31.156Z,78.45
2019-01-27T14:15:03.127Z,79.12
2019-01-27T14:17:35.039Z,79.34
2019-01-27T14:20:09.811Z,79.07
2019-01-27T14:22:41.728Z,79.06
2019-01-27T14:25:15.526Z,79.19
2019-01-27T14:27:47.936Z,78.84
2019-01-27T14:30:26.234Z,78.73
2019-01-27T14:32:58.231Z,77.87
2019-01-27T14:35:30.161Z,77.78
2019-01-27T14:38:02.151Z,78.07
2019-01-27T14:40:34.301Z,78.28
2019-01-27T14:43:06.554Z,77.89
2019-01-27T14:45:38.512Z,78.09
2019-01-27T14:48:10.609Z,77.99
2019-01-27T14:50:46.584Z,78.06
2019-01-27T14:53:18.524Z,77.54
2019-01-27T14:55:50.504Z,77.89
2019-01-27T14:58:22.346Z,77.15
2019-01-27T15:00:54.305Z,77.82
2019-01-27T15:03:26.282Z,77.54
2019-01-27T15:05:58.176Z,77.02
2019-01-27T15:08:30.132Z,77.27
2019-01-27T15:11:02.328Z,76.71
2019-01-27T15:13:34.151Z,76.49
2019-01-27T15:16:06.105Z,76.58
2019-01-27T15:18:38.008Z,76.84
2019-01-27T15:21:19.446Z,76.73
2019-01-27T15:23:51.575Z,76.38
2019-01-27T15:26:40.609Z,76.11
2019-01-27T15:29:14.171Z,76.25
2019-01-27T15:31:45.974Z,76.67
2019-01-27T15:34:17.869Z,76.58
2019-01-27T15:36:49.693Z,76.06
2019-01-27T15:39:21.627Z,75.66
2019-01-27T15:41:53.451Z,75.33
2019-01-27T15:44:25.562Z,75.02
2019-01-27T15:46:57.440Z,74.22
2019-01-27T15:49:29.222Z,74.17
2019-01-27T15:52:01.287Z,74.38
2019-01-27T15:54:33.097Z,74.31
2019-01-27T15:57:05.014Z,73.97
2019-01-27T15:59:36.862Z,74.13
2019-01-27T16:02:09.777Z,74.14
2019-01-27T16:04:41.582Z,74.37
2019-01-27T16:07:13.586Z,74.70
2019-01-27T16:09:45.503Z,74.56
2019-01-27T16:12:17.687Z,74.89
2019-01-27T16:14:49.650Z,74.79
2019-01-27T16:17:21.499Z,73.23
2019-01-27T16:19:53.746Z,74.00
2019-01-27T16:22:25.617Z,73.48
2019-01-27T16:24:57.839Z,72.97
2019-01-27T16:27:29.901Z,72.72
2019-01-27T16:30:29.626Z,72.93
2019-01-27T16:33:06.016Z,72.52
2019-01-27T16:35:37.939Z,72.78
2019-01-27T16:38:09.895Z,73.14
2019-01-27T16:40:41.756Z,73.47
2019-01-27T16:43:13.839Z,73.65
2019-01-27T16:45:45.742Z,73.78
2019-01-27T16:48:17.697Z,74.29
2019-01-27T16:50:50.010Z,74.55
2019-01-27T16:53:27.925Z,74.66
2019-01-27T16:55:59.834Z,74.57
2019-01-27T16:58:32.026Z,75.02
2019-01-27T17:01:04.240Z,75.30
2019-01-27T17:03:36.343Z,75.26
2019-01-27T17:06:26.687Z,75.55
2019-01-27T17:08:58.973Z,75.61
2019-01-27T17:11:30.997Z,76.08
2019-01-27T17:14:02.958Z,76.01
2019-01-27T17:16:34.852Z,76.12
2019-01-27T17:19:06.936Z,76.43
2019-01-27T17:21:39.059Z,76.30
2019-01-27T17:24:10.781Z,76.31
2019-01-27T17:26:42.577Z,76.19
2019-01-27T17:29:14.633Z,76.09
2019-01-27T17:31:46.481Z,76.40
2019-01-27T17:34:18.271Z,76.05
2019-01-27T17:36:50.073Z,76.49
2019-01-27T17:39:21.869Z,75.43
2019-01-27T17:41:53.704Z,76.04
2019-01-27T17:44:25.738Z,76.55
2019-01-27T17:46:57.740Z,75.92
2019-01-27T17:49:29.471Z,75.98
2019-01-27T17:52:01.257Z,76.14
2019-01-27T17:54:32.995Z,75.79
2019-01-27T17:57:14.755Z,76.51
2019-01-27T17:59:55.990Z,76.62
2019-01-27T18:02:58.781Z,76.30
2019-01-27T18:05:38.856Z,76.57
2019-01-27T18:08:23.918Z,76.97
2019-01-27T18:11:04.666Z,77.29
2019-01-27T18:13:39.207Z,77.57
2019-01-27T18:16:14.156Z,78.11
2019-01-27T18:18:46.045Z,78.17
2019-01-27T18:21:17.997Z,78.36
2019-01-27T18:23:50.071Z,78.37
2019-01-27T18:26:22.134Z,78.73
2019-01-27T18:28:54.163Z,78.88
2019-01-27T18:31:25.961Z,79.10
2019-01-27T18:33:58.062Z,79.22
2019-01-27T18:36:30.225Z,79.75
2019-01-27T18:39:02.118Z,80.39
2019-01-27T18:41:35.174Z,80.58
2019-01-27T18:44:08.192Z,81.48
2019-01-27T18:46:40.231Z,81.47
2019-01-27T18:49:12.247Z,81.92
2019-01-27T18:51:44.303Z,81.83
2019-01-27T18:54:36.083Z,82.20
2019-01-27T18:57:13.444Z,82.94
2019-01-27T19:00:01.555Z,82.79
2019-01-27T19:02:55.898Z,83.10
2019-01-27T19:05:47.152Z,83.52
2019-01-27T19:08:28.263Z,83.71
2019-01-27T19:11:21.817Z,83.97
2019-01-27T19:14:04.106Z,84.06
2019-01-27T19:16:50.893Z,84.17
2019-01-27T19:19:29.783Z,84.43
2019-01-27T19:22:29.362Z,84.66
2019-01-27T19:25:17.645Z,84.75
2019-01-27T19:28:14.265Z,84.52
2019-01-27T19:31:00.004Z,84.73
2019-01-27T19:34:11.556Z,84.88
2019-01-27T19:37:05.353Z,84.95
2019-01-27T19:40:05.458Z,85.13
2019-01-27T19:42:56.538Z,84.99
2019-01-27T19:45:42.959Z,85.45
2019-01-27T19:48:33.915Z,85.39
2019-01-27T19:51:23.202Z,85.59
2019-01-27T19:54:14.118Z,86.41
2019-01-27T19:57:14.060Z,86.47
2019-01-27T20:00:10.841Z,87.24
2019-01-27T20:03:01.661Z,86.50
2019-01-27T20:05:52.517Z,87.38
2019-01-27T20:08:41.868Z,87.05
2019-01-27T20:11:35.590Z,86.77
2019-01-27T20:14:44.743Z,87.25
2019-01-27T20:17:50.397Z,86.68
2019-01-27T20:20:33.167Z,86.95
2019-01-27T20:23:22.455Z,87.08
2019-01-27T20:26:12.220Z,86.79
2019-01-27T20:29:00.291Z,87.20
2019-01-27T20:32:00.051Z,87.31
2019-01-27T20:34:50.333Z,87.77
2019-01-27T20:37:39.477Z,87.78
2019-01-27T20:40:50.625Z,88.52
2019-01-27T20:43:41.034Z,87.73
2019-01-27T20:46:30.296Z,88.09
2019-01-27T20:49:10.559Z,88.10
2019-01-27T20:51:52.836Z,88.08
2019-01-27T20:54:37.303Z,88.32
2019-01-27T20:57:23.214Z,88.95
2019-01-27T21:00:00.676Z,89.23
2019-01-27T21:03:03.352Z,89.75
2019-01-27T21:06:00.203Z,89.96
2019-01-27T21:08:49.403Z,91.06
2019-01-27T21:11:38.684Z,90.20
2019-01-27T21:14:27.987Z,91.26
2019-01-27T21:17:31.065Z,91.74
2019-01-27T21:20:06.993Z,91.93
2019-01-27T21:22:38.935Z,91.62
2019-01-27T21:25:12.581Z,92.20
2019-01-27T21:27:44.569Z,91.73
2019-01-27T21:30:17.924Z,91.89
2019-01-27T21:32:50.140Z,92.46
2019-01-27T21:35:22.141Z,92.16
2019-01-27T21:37:54.130Z,92.16
2019-01-27T21:40:26.179Z,91.63
2019-01-27T21:42:58.206Z,91.02
2019-01-27T21:45:30.258Z,91.63
2019-01-27T21:48:02.382Z,91.30
2019-01-27T21:50:34.414Z,92.00
2019-01-27T21:53:07.012Z,92.58
2019-01-27T21:55:38.969Z,92.32
2019-01-27T21:58:10.902Z,92.31
2019-01-27T22:00:42.773Z,92.20
2019-01-27T22:03:14.526Z,92.44
2019-01-27T22:05:46.585Z,92.50
2019-01-27T22:08:18.520Z,92.80
2019-01-27T22:10:50.350Z,92.34
2019-01-27T22:13:22.067Z,92.13
2019-01-27T22:15:53.795Z,92.65
2019-01-27T22:18:25.523Z,92.53
2019-01-27T22:20:58.288Z,92.22
2019-01-27T22:23:30.092Z,92.42
2019-01-27T22:26:01.813Z,92.08
2019-01-27T22:28:33.545Z,91.07
2019-01-27T22:31:05.515Z,91.37
2019-01-27T22:33:37.243Z,90.93
2019-01-27T22:36:09.845Z,90.77
2019-01-27T22:38:42.621Z,91.39
2019-01-27T22:41:14.399Z,91.62
2019-01-27T22:43:46.128Z,91.44
2019-01-27T22:46:17.922Z,91.34
2019-01-27T22:48:49.926Z,91.53
2019-01-27T22:51:21.721Z,90.95
2019-01-27T22:53:53.520Z,90.59
2019-01-27T22:56:25.318Z,90.88
2019-01-27T22:58:57.054Z,90.97
2019-01-27T23:01:29.027Z,91.12
2019-01-27T23:04:00.830Z,91.96
2019-01-27T23:06:32.628Z,91.80
2019-01-27T23:09:07.834Z,92.13
2019-01-27T23:11:39.639Z,92.19
2019-01-27T23:14:11.443Z,91.92
2019-01-27T23:16:43.346Z,91.52
2019-01-27T23:19:15.151Z,90.97
2019-01-27T23:21:46.964Z,91.73
2019-01-27T23:24:18.696Z,92.15
2019-01-27T23:26:50.533Z,91.97
2019-01-27T23:29:22.327Z,92.36
2019-01-27T23:31:54.128Z,92.72
2019-01-27T23:34:25.926Z,92.46
2019-01-27T23:36:57.709Z,92.02
2019-01-27T23:39:29.940Z,91.18
2019-01-27T23:42:01.687Z,91.74
2019-01-27T23:44:33.438Z,92.11
2019-01-27T23:47:05.401Z,91.25
2019-01-27T23:49:37.475Z,91.83
2019-01-27T23:52:09.661Z,91.07
2019-01-27T23:54:41.391Z,91.17
2019-01-27T23:57:13.189Z,90.90
2019-01-27T23:59:44.921Z,91.15
